Ramey, Pennsylvania
Current Conditions -  °F | °C
As of 9:54 PM on Thursday 18 Dec 2014 (Local Time) from KFIG Reporting Station
Overcast Overcast  
Wind Chill: 21°   Ceiling: 1200
Heat Index: 28°   Visibility: 10mi
Dew Point: 23°   Wind: 7mph
Humidity: 81%   Direction: 270°W
Pressure: 30.05"   Gusts: NA
Location:  40.8°N, 78.4°W
Report Text: KFIG 190254Z AUTO 27006KT 10SM OVC012 M02/M05 A3005 RMK AO2 SLP196 T10221050 58005
Loading
Personal Weather Stations






























Interactive Weather Map New forecast layout! Learn more

10-Day Weather Forecast

Advertisements
Track Severe Weather on mobile